Gustavus, Ohio
Current Conditions -  °F | °C
As of 5:51 AM on Wednesday 22 Oct 2014 (Local Time) from KYNG Reporting Station
Haze Haze  
Wind Chill: 41°   Ceiling: 600
Heat Index: 46°   Visibility: 6mi
Dew Point: 44°   Wind: 10mph
Humidity: 93%   Direction: 360°N
Pressure: 30.13"   Gusts: NA
Location:  41.4314°N, 80.6629°W
Report Text: KYNG 220951Z 36009KT 6SM BR OVC006 08/07 A3013 RMK AO2 SLP207 T00780067
Loading
Personal Weather Stations






























Interactive Weather Map
Tropical Storm Tracking
New forecast layout! Learn more

10-Day Weather Forecast

Advertisements
Track Severe Weather on mobile